Time;durP1;ratioP1;P1;durP2;ratioP2;P2;SDS_P1;SDS_P2;PMS_P1;PMS_P2;Temp;Humidity;BMP_temperature;BMP_pressure;BME280_temperature;BME280_humidity;BME280_pressure;Samples;Min_cycle;Max_cycle;Signal;HPM_P1;HPM_P2
2021/05/01 00:01:10;;;;;;;62.47;44.50;;;5.70;99.90;;;;;;4798633;29;20490;-75
2021/05/01 00:03:37;;;;;;;56.37;42.10;;;5.80;99.90;;;;;;4794213;29;20484;-76
2021/05/01 00:06:04;;;;;;;55.07;41.37;;;5.90;99.90;;;;;;4800368;29;20467;-75
2021/05/01 00:08:30;;;;;;;50.20;40.13;;;5.80;99.90;;;;;;4791773;29;20464;-75
2021/05/01 00:11:00;;;;;;;59.37;43.80;;;5.80;99.90;;;;;;4794493;29;20506;-75
2021/05/01 00:13:27;;;;;;;61.23;42.97;;;5.80;99.90;;;;;;4791596;29;20609;-75
2021/05/01 00:15:55;;;;;;;57.30;42.80;;;5.70;99.90;;;;;;4796573;29;20478;-76
2021/05/01 00:18:21;;;;;;;53.83;41.80;;;5.60;99.90;;;;;;4787846;29;20475;-75
2021/05/01 00:20:47;;;;;;;55.57;42.33;;;5.60;99.90;;;;;;4797431;29;20537;-75
2021/05/01 00:23:14;;;;;;;58.97;43.60;;;5.60;99.90;;;;;;4793569;29;20523;-75
2021/05/01 00:25:41;;;;;;;58.57;45.30;;;5.50;99.90;;;;;;4793102;29;20484;-75
2021/05/01 00:28:07;;;;;;;71.20;44.93;;;5.60;99.90;;;;;;4796750;29;20546;-75
2021/05/01 00:30:34;;;;;;;59.60;43.03;;;5.70;99.90;;;;;;4788904;29;20526;-75
2021/05/01 00:33:01;;;;;;;60.63;43.80;;;5.80;99.90;;;;;;4792189;29;20507;-75
2021/05/01 00:35:27;;;;;;;65.80;46.00;;;5.90;99.90;;;;;;4795614;29;20680;-75
2021/05/01 00:37:54;;;;;;;58.67;42.03;;;6.00;99.90;;;;;;4791713;29;20836;-76
2021/05/01 00:40:20;;;;;;;58.70;41.97;;;6.00;99.90;;;;;;4794872;29;21003;-75
2021/05/01 00:42:47;;;;;;;64.43;45.07;;;6.00;99.90;;;;;;4795146;29;20477;-76
2021/05/01 00:45:14;;;;;;;71.50;44.80;;;6.00;99.90;;;;;;4794932;29;20477;-76
2021/05/01 00:47:42;;;;;;;67.47;45.67;;;5.90;99.90;;;;;;4789534;29;20475;-75
2021/05/01 00:50:09;;;;;;;65.67;47.13;;;5.90;99.90;;;;;;4793046;29;20472;-75
2021/05/01 00:52:36;;;;;;;70.40;47.37;;;6.00;99.90;;;;;;4791652;29;20518;-75
2021/05/01 00:55:06;;;;;;;67.83;48.53;;;5.90;99.90;;;;;;4793611;29;20480;-77
2021/05/01 00:57:33;;;;;;;72.77;51.50;;;5.80;99.90;;;;;;4793879;29;20475;-77
2021/05/01 01:00:00;;;;;;;72.83;48.40;;;5.70;99.90;;;;;;4793080;29;20479;-75
2021/05/01 01:02:28;;;;;;;72.97;48.53;;;5.60;99.90;;;;;;4796889;29;20532;-75
2021/05/01 01:04:55;;;;;;;71.40;50.10;;;5.50;99.90;;;;;;4791751;29;20541;-74
2021/05/01 01:07:23;;;;;;;73.20;51.10;;;5.40;99.90;;;;;;4790117;29;20534;-76
2021/05/01 01:09:50;;;;;;;76.53;50.20;;;5.30;99.90;;;;;;4793060;29;20471;-75
2021/05/01 01:12:17;;;;;;;76.20;50.60;;;5.20;99.90;;;;;;4791977;29;20519;-76
2021/05/01 01:14:44;;;;;;;70.57;51.60;;;5.10;99.90;;;;;;4792672;29;20478;-75
2021/05/01 01:17:10;;;;;;;71.83;50.87;;;5.00;99.90;;;;;;4793314;29;20993;-77
2021/05/01 01:19:38;;;;;;;70.80;50.70;;;5.00;99.90;;;;;;4795415;29;20483;-75
2021/05/01 01:22:15;;;;;;;78.17;51.40;;;4.90;99.90;;;;;;4789051;29;20480;-75
2021/05/01 01:24:42;;;;;;;70.67;51.47;;;4.80;99.90;;;;;;4791977;29;21014;-76
2021/05/01 01:27:08;;;;;;;71.27;51.90;;;4.90;99.90;;;;;;4793156;29;20879;-75
2021/05/01 01:29:37;;;;;;;77.20;51.87;;;4.90;99.90;;;;;;4793938;29;20484;-76
2021/05/01 01:32:04;;;;;;;70.73;51.80;;;4.80;99.90;;;;;;4796942;29;21004;-76
2021/05/01 01:34:31;;;;;;;83.47;54.07;;;4.80;99.90;;;;;;4789852;29;20473;-74
2021/05/01 01:36:57;;;;;;;84.07;54.03;;;4.80;99.90;;;;;;4790810;29;20990;-76
2021/05/01 01:39:24;;;;;;;82.00;52.40;;;4.80;99.90;;;;;;4795122;29;20467;-74
2021/05/01 01:41:50;;;;;;;83.93;52.13;;;4.70;99.90;;;;;;4795363;29;20573;-74
2021/05/01 01:44:17;;;;;;;86.10;54.00;;;4.70;99.90;;;;;;4797300;29;20470;-76
2021/05/01 01:46:43;;;;;;;80.90;53.87;;;4.60;99.90;;;;;;4791882;29;20480;-75
2021/05/01 01:49:10;;;;;;;75.37;51.57;;;4.50;99.90;;;;;;4794025;29;20480;-74
2021/05/01 01:51:36;;;;;;;82.93;51.97;;;4.40;99.90;;;;;;4799565;29;20507;-75
2021/05/01 01:54:04;;;;;;;77.20;51.27;;;4.40;99.90;;;;;;4798295;29;20484;-77
2021/05/01 01:56:35;;;;;;;91.07;55.07;;;4.40;99.90;;;;;;4799414;29;20474;-76
2021/05/01 01:59:01;;;;;;;86.23;57.27;;;4.30;99.90;;;;;;4794732;29;20580;-77
2021/05/01 02:01:27;;;;;;;75.30;52.50;;;4.30;99.90;;;;;;4794995;29;20483;-75
2021/05/01 02:03:54;;;;;;;78.90;53.03;;;4.30;99.90;;;;;;4791762;29;20976;-75
2021/05/01 02:06:20;;;;;;;77.60;51.40;;;4.30;99.90;;;;;;4803324;29;20476;-76
2021/05/01 02:08:46;;;;;;;78.20;51.37;;;4.30;99.90;;;;;;4800373;29;20499;-75
2021/05/01 02:11:13;;;;;;;77.80;52.00;;;4.30;99.90;;;;;;4795785;29;20498;-75
2021/05/01 02:13:40;;;;;;;86.07;54.77;;;4.30;99.90;;;;;;4793623;29;20487;-77
2021/05/01 02:16:06;;;;;;;92.53;55.90;;;4.40;99.90;;;;;;4797666;29;20486;-75
2021/05/01 02:18:35;;;;;;;80.77;54.67;;;4.30;99.90;;;;;;4799592;29;20480;-75
2021/05/01 02:21:01;;;;;;;80.33;51.87;;;4.40;99.90;;;;;;4803159;29;20507;-76
2021/05/01 02:23:28;;;;;;;86.80;53.20;;;4.40;99.90;;;;;;4799673;29;20475;-75
2021/05/01 02:25:54;;;;;;;82.70;52.17;;;4.40;99.90;;;;;;4796965;29;20479;-76
2021/05/01 02:28:21;;;;;;;76.00;50.93;;;4.30;99.90;;;;;;4794653;29;20479;-75
2021/05/01 02:30:48;;;;;;;85.17;53.07;;;4.30;99.90;;;;;;4794940;29;20820;-72
2021/05/01 02:33:14;;;;;;;75.73;51.10;;;4.20;99.90;;;;;;4795158;29;21048;-75
2021/05/01 02:35:42;;;;;;;73.53;50.60;;;4.00;99.90;;;;;;4797319;29;21033;-75
2021/05/01 02:38:10;;;;;;;76.03;50.20;;;3.80;99.90;;;;;;4794353;29;20516;-75
2021/05/01 02:40:37;;;;;;;78.80;52.60;;;3.70;99.90;;;;;;4791395;29;20909;-76
2021/05/01 02:43:04;;;;;;;79.57;49.70;;;3.60;99.90;;;;;;4795447;29;20487;-75
2021/05/01 02:45:31;;;;;;;68.40;47.80;;;3.50;99.90;;;;;;4797922;29;20478;-76
2021/05/01 02:47:59;;;;;;;70.00;48.60;;;3.30;99.90;;;;;;4791799;29;20568;-75
2021/05/01 02:50:26;;;;;;;67.10;46.63;;;3.20;99.90;;;;;;4799467;29;20471;-76
2021/05/01 02:52:52;;;;;;;81.57;54.40;;;3.10;99.90;;;;;;4794143;29;20499;-76
2021/05/01 02:55:19;;;;;;;74.33;50.53;;;3.10;99.90;;;;;;4795106;29;20482;-75
2021/05/01 02:57:45;;;;;;;72.90;49.20;;;3.20;99.90;;;;;;4796699;29;20478;-75
2021/05/01 03:00:14;;;;;;;89.97;53.63;;;3.30;99.90;;;;;;4790751;29;20520;-75
2021/05/01 03:02:41;;;;;;;77.93;50.43;;;3.30;99.90;;;;;;4797657;29;21139;-75
2021/05/01 03:05:11;;;;;;;87.20;53.70;;;3.30;99.90;;;;;;4801573;29;20479;-77
2021/05/01 03:07:38;;;;;;;79.53;50.63;;;3.20;99.90;;;;;;4795561;29;20478;-77
2021/05/01 03:10:05;;;;;;;79.07;51.90;;;3.10;99.90;;;;;;4797691;29;20476;-75
2021/05/01 03:12:32;;;;;;;89.40;54.57;;;3.00;99.90;;;;;;4789451;29;20503;-76
2021/05/01 03:14:58;;;;;;;81.27;54.30;;;2.90;99.90;;;;;;4797940;29;20471;-75
2021/05/01 03:17:25;;;;;;;79.93;50.57;;;2.90;99.90;;;;;;4791629;29;20482;-74
2021/05/01 03:19:51;;;;;;;83.03;52.17;;;2.80;99.90;;;;;;4794818;29;20470;-76
2021/05/01 03:22:18;;;;;;;73.63;50.27;;;2.70;99.90;;;;;;4795779;29;20475;-77
2021/05/01 03:24:44;;;;;;;82.47;52.83;;;2.60;99.90;;;;;;4792063;29;20836;-77
2021/05/01 03:27:11;;;;;;;91.00;53.50;;;2.70;99.90;;;;;;4790939;29;20480;-74
2021/05/01 03:29:37;;;;;;;74.50;49.43;;;2.80;99.90;;;;;;4801641;29;20481;-74
2021/05/01 03:32:05;;;;;;;69.37;45.47;;;2.90;99.90;;;;;;4796768;29;20502;-75
2021/05/01 03:34:31;;;;;;;75.17;47.40;;;2.70;99.90;;;;;;4793382;29;20474;-74
2021/05/01 03:36:57;;;;;;;76.40;50.17;;;2.50;99.90;;;;;;4794385;29;20474;-73
2021/05/01 03:39:24;;;;;;;81.13;51.97;;;2.50;99.90;;;;;;4795311;29;21118;-76
2021/05/01 03:41:51;;;;;;;72.17;48.13;;;2.40;99.90;;;;;;4796909;29;21212;-75
2021/05/01 03:44:17;;;;;;;66.40;43.80;;;2.30;99.90;;;;;;4797478;29;20475;-74
2021/05/01 03:46:45;;;;;;;72.90;48.40;;;2.20;99.90;;;;;;4795420;29;20501;-74
2021/05/01 03:49:11;;;;;;;70.77;45.00;;;2.20;99.90;;;;;;4794535;29;20633;-77
2021/05/01 03:51:37;;;;;;;67.73;44.83;;;2.10;99.90;;;;;;4794879;29;20939;-75
2021/05/01 03:54:05;;;;;;;69.27;47.70;;;2.00;99.90;;;;;;4791023;29;20488;-74
2021/05/01 03:56:33;;;;;;;71.60;45.17;;;1.90;99.90;;;;;;4796478;29;20479;-75
2021/05/01 03:59:00;;;;;;;63.60;42.53;;;1.90;99.90;;;;;;4801657;29;20895;-76
2021/05/01 04:01:26;;;;;;;63.83;45.83;;;1.80;99.90;;;;;;4799133;29;20565;-75
2021/05/01 04:03:53;;;;;;;61.30;42.57;;;1.70;99.90;;;;;;4794415;29;21110;-74
2021/05/01 04:06:20;;;;;;;67.17;45.07;;;1.60;99.90;;;;;;4798816;29;20484;-74
2021/05/01 04:08:46;;;;;;;68.63;45.47;;;1.60;99.90;;;;;;4794259;29;21008;-77
2021/05/01 04:11:13;;;;;;;72.70;46.87;;;1.60;99.90;;;;;;4794258;29;20505;-75
2021/05/01 04:13:46;;;;;;;87.73;48.30;;;1.60;99.90;;;;;;4791411;29;20511;-74
2021/05/01 04:16:12;;;;;;;132.40;49.23;;;1.70;99.90;;;;;;4795793;29;21228;-74
2021/05/01 04:18:39;;;;;;;386.00;53.40;;;1.80;99.90;;;;;;4798411;29;20598;-73
2021/05/01 04:21:05;;;;;;;209.53;48.50;;;1.90;99.90;;;;;;4797357;29;20470;-74
2021/05/01 04:23:32;;;;;;;73.30;45.77;;;2.00;99.90;;;;;;4786814;29;20472;-73
2021/05/01 04:25:59;;;;;;;75.33;45.00;;;2.00;99.90;;;;;;4794880;29;20535;-75
2021/05/01 04:28:26;;;;;;;70.00;46.93;;;1.90;99.90;;;;;;4794264;29;20483;-77
2021/05/01 04:30:53;;;;;;;70.23;45.67;;;1.90;99.90;;;;;;4792817;29;21066;-76
2021/05/01 04:33:20;;;;;;;79.43;45.87;;;1.80;99.90;;;;;;4793949;29;20507;-74
2021/05/01 04:35:46;;;;;;;66.83;44.87;;;1.90;99.90;;;;;;4795760;29;20482;-76
2021/05/01 04:38:13;;;;;;;70.33;44.27;;;1.80;99.90;;;;;;4790057;29;20478;-73
2021/05/01 04:40:40;;;;;;;68.57;44.13;;;1.80;99.90;;;;;;4793234;29;20524;-74
2021/05/01 04:43:08;;;;;;;70.43;44.70;;;1.80;99.90;;;;;;4793981;29;20484;-76
2021/05/01 04:45:36;;;;;;;65.30;47.90;;;1.80;99.90;;;;;;4795239;29;20479;-75
2021/05/01 04:48:03;;;;;;;67.57;44.87;;;1.90;99.90;;;;;;4790345;29;20493;-75
2021/05/01 04:50:30;;;;;;;68.50;47.40;;;1.90;99.90;;;;;;4795233;29;20831;-76
2021/05/01 04:52:56;;;;;;;76.27;50.77;;;2.00;99.90;;;;;;4792198;29;20503;-74
2021/05/01 04:55:25;;;;;;;81.13;52.53;;;2.30;99.90;;;;;;4796752;29;20475;-74
2021/05/01 04:57:55;;;;;;;82.60;50.97;;;2.50;99.90;;;;;;4793925;29;20525;-76
2021/05/01 05:00:23;;;;;;;85.10;52.00;;;2.60;99.90;;;;;;4794548;29;20482;-76
2021/05/01 05:02:50;;;;;;;85.10;49.60;;;2.80;99.90;;;;;;4791546;29;20483;-76
2021/05/01 05:05:19;;;;;;;88.30;49.00;;;2.90;99.90;;;;;;4795160;29;21550;-73
2021/05/01 05:07:46;;;;;;;73.77;48.67;;;2.90;99.90;;;;;;4796765;29;20477;-74
2021/05/01 05:10:14;;;;;;;74.97;46.87;;;2.90;99.90;;;;;;4795813;29;20549;-78
2021/05/01 05:12:41;;;;;;;71.90;42.67;;;2.90;99.90;;;;;;4795766;29;20925;-74
2021/05/01 05:15:10;;;;;;;85.03;51.60;;;2.80;99.90;;;;;;4789505;29;20475;-72
2021/05/01 05:17:36;;;;;;;80.13;49.00;;;2.90;99.90;;;;;;4792475;29;21047;-74
2021/05/01 05:20:04;;;;;;;69.13;45.20;;;2.80;99.90;;;;;;4797397;29;20493;-76
2021/05/01 05:22:32;;;;;;;76.50;48.50;;;2.80;99.90;;;;;;4799834;29;20475;-74
2021/05/01 05:24:58;;;;;;;84.97;52.60;;;3.00;99.90;;;;;;4791650;29;20884;-74
2021/05/01 05:27:25;;;;;;;81.30;50.63;;;3.10;99.90;;;;;;4798690;29;20470;-74
2021/05/01 05:29:51;;;;;;;85.60;53.37;;;3.40;99.90;;;;;;4796844;29;20577;-75
2021/05/01 05:32:18;;;;;;;96.40;55.97;;;3.50;99.90;;;;;;4802293;29;20505;-73
2021/05/01 05:34:46;;;;;;;92.60;53.23;;;3.60;99.90;;;;;;4796239;29;20479;-77
2021/05/01 05:37:12;;;;;;;90.30;55.50;;;3.80;99.90;;;;;;4799283;29;20478;-76
2021/05/01 05:39:41;;;;;;;107.77;57.33;;;3.80;99.90;;;;;;4793088;29;20840;-74
2021/05/01 05:42:08;;;;;;;103.73;59.70;;;3.90;99.90;;;;;;4800850;29;20467;-72
2021/05/01 05:44:35;;;;;;;99.77;61.37;;;4.00;99.90;;;;;;4800303;29;20652;-73
2021/05/01 05:47:02;;;;;;;102.00;60.73;;;4.10;99.90;;;;;;4798602;29;20506;-75
2021/05/01 05:49:29;;;;;;;99.30;60.43;;;4.20;99.90;;;;;;4797975;29;20482;-74
2021/05/01 05:51:56;;;;;;;104.73;63.43;;;4.30;99.90;;;;;;4793729;29;20492;-75
2021/05/01 05:54:23;;;;;;;103.70;61.07;;;4.40;99.90;;;;;;4796575;29;20506;-74
2021/05/01 05:56:50;;;;;;;103.00;63.33;;;4.50;99.90;;;;;;4798907;29;20873;-73
2021/05/01 05:59:17;;;;;;;95.83;63.03;;;4.60;99.90;;;;;;4802301;29;20509;-75
2021/05/01 06:01:46;;;;;;;95.33;59.97;;;4.70;99.90;;;;;;4790542;29;20487;-75
2021/05/01 06:04:16;;;;;;;103.60;62.57;;;4.70;99.90;;;;;;4797249;29;20479;-74
2021/05/01 06:06:54;;;;;;;99.50;63.97;;;4.80;99.90;;;;;;4790933;29;20468;-74
2021/05/01 06:09:21;;;;;;;107.00;67.43;;;5.00;99.90;;;;;;4792309;29;21050;-72
2021/05/01 06:11:52;;;;;;;113.33;63.13;;;5.20;99.90;;;;;;4798848;29;20909;-74
2021/05/01 06:14:20;;;;;;;118.13;67.50;;;5.40;99.90;;;;;;4801825;29;20467;-73
2021/05/01 06:16:46;;;;;;;108.03;65.27;;;5.50;99.90;;;;;;4796739;29;20972;-75
2021/05/01 06:19:13;;;;;;;101.50;63.73;;;5.60;99.90;;;;;;4794058;29;20916;-73
2021/05/01 06:21:40;;;;;;;114.93;64.50;;;5.70;99.90;;;;;;4796954;29;20475;-73
2021/05/01 06:24:08;;;;;;;105.50;65.97;;;5.80;99.90;;;;;;4797347;29;20562;-74
2021/05/01 06:26:37;;;;;;;91.67;61.37;;;5.90;99.90;;;;;;4791888;29;20480;-73
2021/05/01 06:29:06;;;;;;;108.03;65.83;;;5.80;99.90;;;;;;4793996;29;20473;-75
2021/05/01 06:31:36;;;;;;;107.97;68.43;;;6.00;99.90;;;;;;4803150;29;21368;-74
2021/05/01 06:34:03;;;;;;;104.37;66.20;;;5.90;99.90;;;;;;4800415;29;20479;-73
2021/05/01 06:36:30;;;;;;;99.30;66.47;;;6.00;99.90;;;;;;4797899;29;20505;-75
2021/05/01 06:39:00;;;;;;;102.07;68.20;;;6.10;99.90;;;;;;4799203;29;20952;-74
2021/05/01 06:41:37;;;;;;;108.87;68.67;;;6.10;99.90;;;;;;4798860;29;20504;-75
2021/05/01 06:44:08;;;;;;;90.80;61.47;;;6.20;99.90;;;;;;4792561;29;21007;-74
2021/05/01 06:46:40;;;;;;;95.07;59.07;;;6.30;99.90;;;;;;4799368;29;20554;-75
2021/05/01 06:49:11;;;;;;;87.90;61.33;;;6.40;99.90;;;;;;4793298;29;20468;-74
2021/05/01 06:51:39;;;;;;;88.50;58.37;;;6.50;99.90;;;;;;4792506;29;20619;-73
2021/05/01 06:54:09;;;;;;;99.40;65.43;;;6.70;99.90;;;;;;4793264;29;21244;-74
2021/05/01 06:56:39;;;;;;;86.37;62.77;;;6.80;99.90;;;;;;4791205;29;20568;-77
2021/05/01 06:59:08;;;;;;;90.17;63.10;;;7.00;99.90;;;;;;4791959;29;20485;-74
2021/05/01 07:01:37;;;;;;;94.93;63.30;;;7.00;99.90;;;;;;4796931;29;20999;-74
2021/05/01 07:04:07;;;;;;;87.23;59.10;;;6.90;99.90;;;;;;4791007;29;20987;-75
2021/05/01 07:06:35;;;;;;;81.40;54.97;;;7.20;99.90;;;;;;4802874;29;20483;-76
2021/05/01 07:09:01;;;;;;;88.37;60.37;;;7.40;99.90;;;;;;4796353;29;20487;-74
2021/05/01 07:11:29;;;;;;;84.93;57.83;;;7.70;99.90;;;;;;4792044;29;20495;-76
2021/05/01 07:13:55;;;;;;;98.40;61.87;;;8.00;99.90;;;;;;4793094;29;20524;-75
2021/05/01 07:16:23;;;;;;;91.63;62.47;;;7.80;99.90;;;;;;4793254;29;21058;-74
2021/05/01 07:18:49;;;;;;;91.17;64.27;;;7.80;99.90;;;;;;4794604;29;20476;-77
2021/05/01 07:21:17;;;;;;;85.87;59.00;;;8.00;99.90;;;;;;4795266;29;20472;-73
2021/05/01 07:23:44;;;;;;;89.33;56.60;;;8.20;99.90;;;;;;4789575;29;20477;-74
2021/05/01 07:26:17;;;;;;;83.07;56.03;;;8.50;99.90;;;;;;4789631;29;20471;-73
2021/05/01 07:28:47;;;;;;;81.83;54.80;;;8.70;99.90;;;;;;4790932;29;20833;-75
2021/05/01 07:31:18;;;;;;;75.20;52.67;;;8.70;99.90;;;;;;4794112;29;20478;-74
2021/05/01 07:33:47;;;;;;;83.03;54.93;;;8.80;99.90;;;;;;4792357;29;21013;-73
2021/05/01 07:36:23;;;;;;;74.17;48.40;;;8.90;99.90;;;;;;4785797;29;20476;-74
2021/05/01 07:38:52;;;;;;;58.00;46.80;;;9.00;99.90;;;;;;4794528;29;20473;-74
2021/05/01 07:41:23;;;;;;;65.60;49.30;;;9.00;99.90;;;;;;4796448;29;20882;-73
2021/05/01 07:43:52;;;;;;;65.47;51.13;;;9.00;99.90;;;;;;4790581;29;20475;-72
2021/05/01 07:46:21;;;;;;;67.73;50.23;;;9.10;99.90;;;;;;4793428;29;20475;-74
2021/05/01 07:48:49;;;;;;;57.10;47.70;;;9.30;99.90;;;;;;4792642;29;20474;-76
2021/05/01 07:51:16;;;;;;;54.67;46.53;;;9.30;99.90;;;;;;4789238;29;20478;-76
2021/05/01 07:53:44;;;;;;;52.57;44.67;;;9.50;99.90;;;;;;4792711;29;20521;-73
2021/05/01 07:56:11;;;;;;;52.90;41.50;;;9.70;99.90;;;;;;4793331;29;20481;-76
2021/05/01 07:58:37;;;;;;;48.97;40.97;;;9.60;99.90;;;;;;4789628;29;20523;-77
2021/05/01 08:01:04;;;;;;;47.60;39.50;;;9.80;99.90;;;;;;4794498;29;20489;-75
2021/05/01 08:03:31;;;;;;;50.83;39.03;;;9.70;99.90;;;;;;4786328;29;20570;-75
2021/05/01 08:05:58;;;;;;;44.97;37.30;;;9.90;99.90;;;;;;4794038;29;20469;-74
2021/05/01 08:08:25;;;;;;;42.00;34.40;;;9.80;99.90;;;;;;4794922;29;20510;-73
2021/05/01 08:10:51;;;;;;;45.17;34.40;;;9.70;99.90;;;;;;4790524;29;20892;-74
2021/05/01 08:13:18;;;;;;;36.90;32.90;;;9.70;99.90;;;;;;4789332;29;20501;-77
2021/05/01 08:15:44;;;;;;;36.20;32.23;;;9.60;99.90;;;;;;4793758;29;20484;-73
2021/05/01 08:18:11;;;;;;;36.93;32.00;;;9.60;99.90;;;;;;4787660;29;20574;-76
2021/05/01 08:20:38;;;;;;;35.03;31.63;;;9.70;99.90;;;;;;4787835;29;20554;-73
2021/05/01 08:23:05;;;;;;;38.13;29.70;;;9.90;99.90;;;;;;4789485;29;20479;-73
2021/05/01 08:25:32;;;;;;;32.30;28.97;;;9.70;99.90;;;;;;4794319;29;20477;-73
2021/05/01 08:27:59;;;;;;;34.07;30.43;;;9.90;99.90;;;;;;4793614;29;20501;-73
2021/05/01 08:30:26;;;;;;;33.37;29.87;;;10.00;99.90;;;;;;4790927;29;20480;-73
2021/05/01 08:32:52;;;;;;;29.97;26.87;;;10.10;99.90;;;;;;4791120;29;20525;-75
2021/05/01 08:35:19;;;;;;;27.50;24.77;;;10.30;99.90;;;;;;4793547;29;20560;-74
2021/05/01 08:37:47;;;;;;;28.97;26.27;;;10.60;99.90;;;;;;4788686;29;20467;-73
2021/05/01 08:40:16;;;;;;;28.10;25.43;;;10.90;99.90;;;;;;4791160;29;20496;-76
2021/05/01 08:42:44;;;;;;;28.80;26.03;;;11.00;99.90;;;;;;4792581;29;20569;-73
2021/05/01 08:45:11;;;;;;;26.93;24.40;;;11.60;99.90;;;;;;4796784;29;20489;-73
2021/05/01 08:47:42;;;;;;;29.53;25.60;;;12.00;99.90;;;;;;4797560;29;20556;-73
2021/05/01 08:50:30;;;;;;;24.50;22.17;;;12.90;99.90;;;;;;4793787;29;20987;-73
2021/05/01 08:52:58;;;;;;;27.70;25.00;;;13.50;99.90;;;;;;4795051;29;20995;-74
2021/05/01 08:55:27;;;;;;;26.90;24.20;;;13.10;99.90;;;;;;4797263;29;20506;-72
2021/05/01 08:57:55;;;;;;;25.60;23.10;;;13.80;99.90;;;;;;4793262;29;20480;-73
2021/05/01 09:00:22;;;;;;;25.87;23.40;;;13.90;99.90;;;;;;4790544;29;21006;-73
2021/05/01 09:02:50;;;;;;;24.53;22.43;;;14.70;99.90;;;;;;4789873;29;21054;-72
2021/05/01 09:05:17;;;;;;;26.53;24.33;;;13.80;99.90;;;;;;4792291;29;20478;-73
2021/05/01 09:07:46;;;;;;;26.63;24.43;;;14.20;99.90;;;;;;4795595;29;20464;-73
2021/05/01 09:10:14;;;;;;;24.83;22.53;;;13.80;99.90;;;;;;4795805;29;20482;-72
2021/05/01 09:12:45;;;;;;;25.67;23.37;;;13.60;99.90;;;;;;4792382;29;20508;-73
2021/05/01 09:15:17;;;;;;;24.37;22.37;;;14.20;99.90;;;;;;4796862;29;20471;-73
2021/05/01 09:17:45;;;;;;;26.00;23.70;;;15.20;99.90;;;;;;4798604;29;20480;-73
2021/05/01 09:20:15;;;;;;;23.90;21.70;;;15.30;99.90;;;;;;4787034;29;20475;-73
2021/05/01 09:22:52;;;;;;;23.97;21.90;;;15.20;99.50;;;;;;4791049;29;21035;-74
2021/05/01 09:25:19;;;;;;;24.17;22.13;;;14.80;98.40;;;;;;4795455;29;20478;-73
2021/05/01 09:28:03;;;;;;;24.17;22.37;;;14.70;98.30;;;;;;4794842;29;20479;-73
2021/05/01 09:30:32;;;;;;;24.13;22.17;;;15.30;97.90;;;;;;4798300;29;20518;-73
2021/05/01 09:33:18;;;;;;;25.43;23.13;;;15.70;97.30;;;;;;4793326;29;20488;-75
2021/05/01 09:35:48;;;;;;;24.90;22.80;;;15.40;96.40;;;;;;4786272;29;20475;-73
2021/05/01 09:38:15;;;;;;;24.07;22.00;;;15.10;96.60;;;;;;4792032;29;20472;-74
2021/05/01 09:40:45;;;;;;;24.60;22.50;;;15.60;96.70;;;;;;4786142;29;20487;-72
2021/05/01 09:43:12;;;;;;;25.67;22.97;;;16.40;94.90;;;;;;4786825;29;20576;-73
2021/05/01 09:45:39;;;;;;;24.50;22.37;;;17.50;92.40;;;;;;4790681;29;20471;-72
2021/05/01 09:48:17;;;;;;;23.93;21.63;;;17.70;90.40;;;;;;4787477;29;20475;-74
2021/05/01 09:50:44;;;;;;;21.10;19.50;;;17.90;90.80;;;;;;4791648;29;20528;-73
2021/05/01 09:53:13;;;;;;;22.50;20.70;;;18.00;87.20;;;;;;4789874;29;20503;-73
2021/05/01 09:55:44;;;;;;;22.37;20.77;;;17.40;83.10;;;;;;4785518;29;20790;-75
2021/05/01 09:58:18;;;;;;;24.93;23.03;;;18.70;79.50;;;;;;4792953;29;20484;-73
2021/05/01 10:00:46;;;;;;;24.90;22.90;;;18.50;80.90;;;;;;4785429;29;20968;-73
2021/05/01 10:03:24;;;;;;;24.73;22.77;;;17.40;84.40;;;;;;4795776;29;20471;-73
2021/05/01 10:05:52;;;;;;;26.87;24.67;;;16.00;87.20;;;;;;4797120;29;20570;-73
2021/05/01 10:08:20;;;;;;;26.43;23.97;;;15.20;89.10;;;;;;4792913;29;20822;-74
2021/05/01 10:10:48;;;;;;;22.50;20.60;;;15.30;89.60;;;;;;4791824;29;20482;-73
2021/05/01 10:13:16;;;;;;;23.97;22.10;;;15.60;88.20;;;;;;4790903;29;21019;-74
2021/05/01 10:15:43;;;;;;;22.40;20.60;;;15.60;88.50;;;;;;4798211;29;21219;-73
2021/05/01 10:18:11;;;;;;;22.30;20.53;;;15.20;85.20;;;;;;4798512;29;20476;-74
2021/05/01 10:20:45;;;;;;;22.00;20.37;;;15.30;83.90;;;;;;4793466;29;20549;-74
2021/05/01 10:23:14;;;;;;;19.40;18.00;;;16.10;83.60;;;;;;4794215;29;20693;-74
2021/05/01 10:25:40;;;;;;;20.73;19.00;;;16.90;82.50;;;;;;4791812;29;20472;-73
2021/05/01 10:28:12;;;;;;;19.20;17.80;;;17.80;80.20;;;;;;4791806;29;20476;-73
2021/05/01 10:30:42;;;;;;;18.00;16.80;;;18.50;75.80;;;;;;4795326;29;20468;-73
2021/05/01 10:33:24;;;;;;;18.80;17.30;;;18.30;73.00;;;;;;4789473;29;20507;-73
2021/05/01 10:35:57;;;;;;;20.43;19.07;;;18.10;72.90;;;;;;4795050;29;20510;-74
2021/05/01 10:38:24;;;;;;;18.47;17.00;;;17.60;73.00;;;;;;4793579;29;20474;-74
2021/05/01 10:40:51;;;;;;;19.20;17.57;;;16.50;71.30;;;;;;4794213;29;20509;-72
2021/05/01 10:43:22;;;;;;;20.73;18.93;;;16.00;76.00;;;;;;4790549;29;20532;-73
2021/05/01 10:45:58;;;;;;;19.50;18.00;;;16.10;73.10;;;;;;4799106;29;20476;-73
2021/05/01 10:48:25;;;;;;;19.10;17.80;;;16.90;71.40;;;;;;4795621;29;20873;-73
2021/05/01 10:51:04;;;;;;;18.10;16.90;;;17.60;68.00;;;;;;4795358;29;20472;-73
2021/05/01 10:53:31;;;;;;;18.53;16.70;;;18.50;68.60;;;;;;4795270;29;20510;-73
2021/05/01 10:55:58;;;;;;;18.37;17.20;;;18.10;71.90;;;;;;4784406;29;20476;-73
2021/05/01 10:58:40;;;;;;;18.03;16.83;;;19.20;66.40;;;;;;4791913;29;20575;-73
2021/05/01 11:01:09;;;;;;;19.63;18.13;;;20.20;61.80;;;;;;4793373;29;20476;-74
2021/05/01 11:03:47;;;;;;;18.17;16.63;;;20.70;58.90;;;;;;4791052;29;20968;-73
2021/05/01 11:06:24;;;;;;;17.50;16.10;;;20.30;59.40;;;;;;4801978;29;20483;-73
2021/05/01 11:08:58;;;;;;;19.83;18.07;;;20.80;59.20;;;;;;4792198;29;20832;-76
2021/05/01 11:11:30;;;;;;;18.77;17.37;;;19.60;58.30;;;;;;4790025;29;20492;-75
2021/05/01 11:14:04;;;;;;;19.50;17.90;;;19.70;57.40;;;;;;4797290;29;20512;-73
2021/05/01 11:16:43;;;;;;;17.00;15.80;;;20.40;57.60;;;;;;4797565;29;20471;-73
2021/05/01 11:19:13;;;;;;;21.47;16.47;;;20.50;57.30;;;;;;4793952;29;20536;-75
2021/05/01 11:21:42;;;;;;;16.93;15.63;;;20.50;58.10;;;;;;4794106;29;21007;-73
2021/05/01 11:24:11;;;;;;;16.67;15.47;;;19.80;57.60;;;;;;4791847;29;20481;-73
2021/05/01 11:26:41;;;;;;;16.27;14.80;;;18.80;59.20;;;;;;4793377;29;20476;-74
2021/05/01 11:29:08;;;;;;;15.90;14.90;;;19.20;57.20;;;;;;4795616;29;20487;-73
2021/05/01 11:31:35;;;;;;;17.43;16.03;;;19.50;58.10;;;;;;4798782;29;20872;-75
2021/05/01 11:34:05;;;;;;;17.90;16.80;;;19.50;58.00;;;;;;4798291;29;20510;-74
2021/05/01 11:36:34;;;;;;;20.23;16.73;;;19.20;55.50;;;;;;4795406;29;20479;-74
2021/05/01 11:39:01;;;;;;;17.00;15.90;;;18.70;56.50;;;;;;4791687;29;20476;-74
2021/05/01 11:41:29;;;;;;;18.73;17.00;;;17.60;55.20;;;;;;4791915;29;20859;-75
2021/05/01 11:43:57;;;;;;;18.20;16.60;;;17.20;57.40;;;;;;4794047;29;20476;-73
2021/05/01 11:46:30;;;;;;;18.30;16.70;;;17.10;59.30;;;;;;4800798;29;20485;-73
2021/05/01 11:49:04;;;;;;;18.33;16.40;;;16.60;59.00;;;;;;4796013;29;20567;-74
2021/05/01 11:51:43;;;;;;;18.47;16.90;;;16.20;58.70;;;;;;4795733;29;20476;-73
2021/05/01 11:54:22;;;;;;;18.73;17.33;;;15.60;63.10;;;;;;4791655;29;20507;-75
2021/05/01 11:56:56;;;;;;;16.80;15.70;;;15.20;63.40;;;;;;4791225;29;20985;-73
2021/05/01 11:59:24;;;;;;;17.50;16.30;;;16.20;60.90;;;;;;4794288;29;20481;-74
2021/05/01 12:01:58;;;;;;;17.40;16.10;;;16.70;59.80;;;;;;4791676;29;20830;-74
2021/05/01 12:04:43;;;;;;;16.47;15.20;;;17.10;63.00;;;;;;4787957;29;20508;-75
2021/05/01 12:07:15;;;;;;;16.90;15.40;;;17.00;62.00;;;;;;4800249;29;20528;-73
2021/05/01 12:09:46;;;;;;;16.43;15.13;;;17.20;58.70;;;;;;4791227;29;20479;-74
2021/05/01 12:12:13;;;;;;;15.07;14.27;;;17.30;56.50;;;;;;4788581;29;20494;-74
2021/05/01 12:14:40;;;;;;;16.07;15.00;;;16.80;55.10;;;;;;4790973;29;20472;-74
2021/05/01 12:21:00;;;;;;;14.83;13.83;;;17.00;59.20;;;;;;4788626;29;20976;-75
2021/05/01 12:23:41;;;;;;;14.63;13.50;;;17.20;57.60;;;;;;4790263;29;20521;-77
2021/05/01 12:26:08;;;;;;;14.77;13.70;;;16.60;57.80;;;;;;4789197;29;20479;-77
2021/05/01 12:28:44;;;;;;;15.30;14.10;;;16.30;58.10;;;;;;4790691;29;20479;-75
2021/05/01 12:31:10;;;;;;;14.40;13.50;;;16.10;58.90;;;;;;4801447;29;20470;-75
2021/05/01 12:33:54;;;;;;;14.77;13.87;;;15.80;59.60;;;;;;4790676;29;20516;-75
2021/05/01 12:36:29;;;;;;;16.17;14.93;;;15.60;59.60;;;;;;4794866;29;20621;-77
2021/05/01 12:38:58;;;;;;;15.50;14.13;;;15.40;61.80;;;;;;4792283;29;20478;-74
2021/05/01 12:41:29;;;;;;;16.80;15.17;;;15.80;62.40;;;;;;4790554;29;21019;-75
2021/05/01 12:43:56;;;;;;;15.07;14.07;;;16.10;60.50;;;;;;4797606;29;23463;-75